sensor_id;sensor_type;location;lat;lon;timestamp;temperature;humidity
22224;DHT22;11281;52.194;21.006;2022-12-18T00:03:16;-4.70;99.90
22224;DHT22;11281;52.194;21.006;2022-12-18T00:07:38;-4.80;99.90
22224;DHT22;11281;52.194;21.006;2022-12-18T00:12:00;-4.70;99.90
22224;DHT22;11281;52.194;21.006;2022-12-18T00:16:23;-4.70;99.90
22224;DHT22;11281;52.194;21.006;2022-12-18T00:20:46;-4.70;99.90
22224;DHT22;11281;52.194;21.006;2022-12-18T00:25:08;-4.70;99.90
22224;DHT22;11281;52.194;21.006;2022-12-18T00:29:30;-4.60;99.90
22224;DHT22;11281;52.194;21.006;2022-12-18T00:33:53;-4.60;99.90
22224;DHT22;11281;52.194;21.006;2022-12-18T00:38:16;-4.70;99.90
22224;DHT22;11281;52.194;21.006;2022-12-18T00:42:38;-4.60;99.90
22224;DHT22;11281;52.194;21.006;2022-12-18T00:47:18;-4.60;99.90
22224;DHT22;11281;52.194;21.006;2022-12-18T00:51:40;-4.40;99.90
22224;DHT22;11281;52.194;21.006;2022-12-18T00:56:02;-4.40;99.90
22224;DHT22;11281;52.194;21.006;2022-12-18T01:00:24;-4.40;99.90
22224;DHT22;11281;52.194;21.006;2022-12-18T01:04:46;-4.40;99.90
22224;DHT22;11281;52.194;21.006;2022-12-18T01:09:08;-4.50;99.90
22224;DHT22;11281;52.194;21.006;2022-12-18T01:13:29;-4.40;99.90
22224;DHT22;11281;52.194;21.006;2022-12-18T01:17:53;-4.30;99.90
22224;DHT22;11281;52.194;21.006;2022-12-18T01:22:14;-4.40;99.90
22224;DHT22;11281;52.194;21.006;2022-12-18T01:26:36;-4.40;99.90
22224;DHT22;11281;52.194;21.006;2022-12-18T01:31:19;-4.30;99.90
22224;DHT22;11281;52.194;21.006;2022-12-18T01:35:42;-4.30;99.90
22224;DHT22;11281;52.194;21.006;2022-12-18T01:40:04;-4.30;99.90
22224;DHT22;11281;52.194;21.006;2022-12-18T01:49:19;-4.30;99.90
22224;DHT22;11281;52.194;21.006;2022-12-18T01:53:42;-4.30;99.90
22224;DHT22;11281;52.194;21.006;2022-12-18T01:58:05;-4.40;99.90
22224;DHT22;11281;52.194;21.006;2022-12-18T02:02:28;-4.40;99.90
22224;DHT22;11281;52.194;21.006;2022-12-18T02:06:57;-4.40;99.90
22224;DHT22;11281;52.194;21.006;2022-12-18T02:11:33;-4.40;99.90
22224;DHT22;11281;52.194;21.006;2022-12-18T02:30:41;-4.60;99.90
22224;DHT22;11281;52.194;21.006;2022-12-18T02:35:06;-4.70;99.90
22224;DHT22;11281;52.194;21.006;2022-12-18T02:39:38;-4.70;99.90
22224;DHT22;11281;52.194;21.006;2022-12-18T02:44:08;-4.70;99.90
22224;DHT22;11281;52.194;21.006;2022-12-18T02:48:33;-4.60;99.90
22224;DHT22;11281;52.194;21.006;2022-12-18T02:52:58;-4.70;99.90
22224;DHT22;11281;52.194;21.006;2022-12-18T03:02:01;-4.90;99.90
22224;DHT22;11281;52.194;21.006;2022-12-18T03:06:33;-4.90;99.90
22224;DHT22;11281;52.194;21.006;2022-12-18T03:11:06;-5.10;99.90
22224;DHT22;11281;52.194;21.006;2022-12-18T03:15:34;-5.00;99.90
22224;DHT22;11281;52.194;21.006;2022-12-18T03:19:59;-5.00;99.90
22224;DHT22;11281;52.194;21.006;2022-12-18T03:24:27;-5.10;99.90
22224;DHT22;11281;52.194;21.006;2022-12-18T03:29:04;-5.10;99.90
22224;DHT22;11281;52.194;21.006;2022-12-18T03:33:34;-5.20;99.90
22224;DHT22;11281;52.194;21.006;2022-12-18T03:38:00;-5.00;99.90
22224;DHT22;11281;52.194;21.006;2022-12-18T03:42:34;-5.00;99.90
22224;DHT22;11281;52.194;21.006;2022-12-18T03:47:28;-4.90;99.90
22224;DHT22;11281;52.194;21.006;2022-12-18T03:52:12;-5.00;99.90
22224;DHT22;11281;52.194;21.006;2022-12-18T03:56:40;-5.20;99.90
22224;DHT22;11281;52.194;21.006;2022-12-18T04:01:06;-5.10;99.90
22224;DHT22;11281;52.194;21.006;2022-12-18T04:05:30;-5.10;99.90
22224;DHT22;11281;52.194;21.006;2022-12-18T04:09:56;-5.20;99.90
22224;DHT22;11281;52.194;21.006;2022-12-18T04:14:20;-5.20;99.90
22224;DHT22;11281;52.194;21.006;2022-12-18T04:18:41;-5.30;99.90
22224;DHT22;11281;52.194;21.006;2022-12-18T04:23:03;-5.30;99.90
22224;DHT22;11281;52.194;21.006;2022-12-18T04:27:25;-5.20;99.90
22224;DHT22;11281;52.194;21.006;2022-12-18T04:31:46;-5.30;99.90
22224;DHT22;11281;52.194;21.006;2022-12-18T04:36:08;-5.40;99.90
22224;DHT22;11281;52.194;21.006;2022-12-18T04:40:30;-5.40;99.90
22224;DHT22;11281;52.194;21.006;2022-12-18T04:44:52;-5.40;99.90
22224;DHT22;11281;52.194;21.006;2022-12-18T04:49:13;-5.30;99.90
22224;DHT22;11281;52.194;21.006;2022-12-18T04:53:35;-5.40;99.90
22224;DHT22;11281;52.194;21.006;2022-12-18T04:57:57;-5.40;99.90
22224;DHT22;11281;52.194;21.006;2022-12-18T05:02:19;-5.40;99.90
22224;DHT22;11281;52.194;21.006;2022-12-18T05:06:40;-5.40;99.90
22224;DHT22;11281;52.194;21.006;2022-12-18T05:11:08;-5.40;99.90
22224;DHT22;11281;52.194;21.006;2022-12-18T05:15:32;-5.50;99.90
22224;DHT22;11281;52.194;21.006;2022-12-18T05:19:54;-5.60;99.90
22224;DHT22;11281;52.194;21.006;2022-12-18T05:24:15;-5.60;99.90
22224;DHT22;11281;52.194;21.006;2022-12-18T05:28:37;-5.60;99.90
22224;DHT22;11281;52.194;21.006;2022-12-18T05:32:59;-5.50;99.90
22224;DHT22;11281;52.194;21.006;2022-12-18T05:37:21;-5.70;99.90
22224;DHT22;11281;52.194;21.006;2022-12-18T05:41:42;-5.70;99.90
22224;DHT22;11281;52.194;21.006;2022-12-18T05:46:12;-5.70;99.90
22224;DHT22;11281;52.194;21.006;2022-12-18T05:50:36;-5.70;99.90
22224;DHT22;11281;52.194;21.006;2022-12-18T05:55:00;-5.70;99.90
22224;DHT22;11281;52.194;21.006;2022-12-18T05:59:21;-5.90;99.90
22224;DHT22;11281;52.194;21.006;2022-12-18T06:03:43;-5.90;99.90
22224;DHT22;11281;52.194;21.006;2022-12-18T06:08:05;-5.80;99.90
22224;DHT22;11281;52.194;21.006;2022-12-18T06:12:27;-5.70;99.90
22224;DHT22;11281;52.194;21.006;2022-12-18T06:16:50;-5.70;99.90
22224;DHT22;11281;52.194;21.006;2022-12-18T06:21:13;-5.70;99.90
22224;DHT22;11281;52.194;21.006;2022-12-18T06:25:37;-5.70;99.90
22224;DHT22;11281;52.194;21.006;2022-12-18T06:30:00;-5.80;99.90
22224;DHT22;11281;52.194;21.006;2022-12-18T06:34:22;-5.70;99.90
22224;DHT22;11281;52.194;21.006;2022-12-18T06:38:44;-5.70;99.90
22224;DHT22;11281;52.194;21.006;2022-12-18T06:43:06;-5.80;99.90
22224;DHT22;11281;52.194;21.006;2022-12-18T06:47:28;-5.80;99.90
22224;DHT22;11281;52.194;21.006;2022-12-18T06:51:49;-5.80;99.90
22224;DHT22;11281;52.194;21.006;2022-12-18T06:56:11;-6.00;99.90
22224;DHT22;11281;52.194;21.006;2022-12-18T07:00:33;-5.90;99.90
22224;DHT22;11281;52.194;21.006;2022-12-18T07:04:55;-5.90;99.90
22224;DHT22;11281;52.194;21.006;2022-12-18T07:09:16;-5.90;99.90
22224;DHT22;11281;52.194;21.006;2022-12-18T07:13:38;-5.90;99.90
22224;DHT22;11281;52.194;21.006;2022-12-18T07:18:00;-6.00;99.90
22224;DHT22;11281;52.194;21.006;2022-12-18T07:22:22;-5.80;99.90
22224;DHT22;11281;52.194;21.006;2022-12-18T07:26:46;-6.00;99.90
22224;DHT22;11281;52.194;21.006;2022-12-18T07:31:10;-5.80;99.90
22224;DHT22;11281;52.194;21.006;2022-12-18T07:35:33;-5.60;99.90
22224;DHT22;11281;52.194;21.006;2022-12-18T07:39:55;-5.90;99.90
22224;DHT22;11281;52.194;21.006;2022-12-18T07:44:17;-5.80;99.90
22224;DHT22;11281;52.194;21.006;2022-12-18T07:48:39;-5.50;99.90
22224;DHT22;11281;52.194;21.006;2022-12-18T07:53:01;-5.70;99.90
22224;DHT22;11281;52.194;21.006;2022-12-18T07:57:25;-5.60;99.90
22224;DHT22;11281;52.194;21.006;2022-12-18T08:01:47;-5.40;99.90
22224;DHT22;11281;52.194;21.006;2022-12-18T08:06:09;-5.30;99.90
22224;DHT22;11281;52.194;21.006;2022-12-18T08:10:31;-5.50;99.90
22224;DHT22;11281;52.194;21.006;2022-12-18T08:14:53;-5.40;99.90
22224;DHT22;11281;52.194;21.006;2022-12-18T08:19:15;-5.30;99.90
22224;DHT22;11281;52.194;21.006;2022-12-18T08:23:37;-5.20;99.90
22224;DHT22;11281;52.194;21.006;2022-12-18T08:27:59;-5.30;99.90
22224;DHT22;11281;52.194;21.006;2022-12-18T08:32:20;-5.50;99.90
22224;DHT22;11281;52.194;21.006;2022-12-18T08:36:42;-5.20;99.90
22224;DHT22;11281;52.194;21.006;2022-12-18T08:41:09;-5.20;99.90
22224;DHT22;11281;52.194;21.006;2022-12-18T08:45:33;-5.10;99.90
22224;DHT22;11281;52.194;21.006;2022-12-18T08:49:55;-4.90;99.90
22224;DHT22;11281;52.194;21.006;2022-12-18T08:54:17;-4.90;99.90
22224;DHT22;11281;52.194;21.006;2022-12-18T08:58:40;-4.70;99.90
22224;DHT22;11281;52.194;21.006;2022-12-18T09:03:02;-4.50;99.90
22224;DHT22;11281;52.194;21.006;2022-12-18T09:07:24;-4.20;99.90
22224;DHT22;11281;52.194;21.006;2022-12-18T09:11:46;-3.80;99.90
22224;DHT22;11281;52.194;21.006;2022-12-18T09:16:08;-4.20;99.90
22224;DHT22;11281;52.194;21.006;2022-12-18T09:20:29;-4.10;99.90
22224;DHT22;11281;52.194;21.006;2022-12-18T09:24:51;-3.60;99.90
22224;DHT22;11281;52.194;21.006;2022-12-18T09:29:14;-4.10;99.90
22224;DHT22;11281;52.194;21.006;2022-12-18T09:33:36;-4.50;99.90
22224;DHT22;11281;52.194;21.006;2022-12-18T09:37:58;-4.30;99.90
22224;DHT22;11281;52.194;21.006;2022-12-18T09:42:21;-4.20;99.90
22224;DHT22;11281;52.194;21.006;2022-12-18T09:46:47;-3.80;99.90
22224;DHT22;11281;52.194;21.006;2022-12-18T09:51:26;-3.70;99.90
22224;DHT22;11281;52.194;21.006;2022-12-18T09:56:12;-3.60;99.90
22224;DHT22;11281;52.194;21.006;2022-12-18T10:00:38;-4.10;99.90
22224;DHT22;11281;52.194;21.006;2022-12-18T10:05:10;-4.10;99.90
22224;DHT22;11281;52.194;21.006;2022-12-18T10:14:57;-4.00;99.90
22224;DHT22;11281;52.194;21.006;2022-12-18T10:19:48;-4.10;99.90
22224;DHT22;11281;52.194;21.006;2022-12-18T10:24:17;-4.00;99.90
22224;DHT22;11281;52.194;21.006;2022-12-18T10:28:45;-3.90;99.90
22224;DHT22;11281;52.194;21.006;2022-12-18T10:33:15;-3.60;99.90
22224;DHT22;11281;52.194;21.006;2022-12-18T10:37:59;-3.90;99.90
22224;DHT22;11281;52.194;21.006;2022-12-18T10:42:28;-3.70;99.90
22224;DHT22;11281;52.194;21.006;2022-12-18T10:46:54;-3.50;99.90
22224;DHT22;11281;52.194;21.006;2022-12-18T10:51:30;-3.40;99.90
22224;DHT22;11281;52.194;21.006;2022-12-18T10:55:57;-3.60;99.90
22224;DHT22;11281;52.194;21.006;2022-12-18T11:00:28;-3.40;99.90
22224;DHT22;11281;52.194;21.006;2022-12-18T11:04:52;-3.40;99.90
22224;DHT22;11281;52.194;21.006;2022-12-18T11:09:22;-3.40;99.90
22224;DHT22;11281;52.194;21.006;2022-12-18T11:18:32;-2.80;99.90
22224;DHT22;11281;52.194;21.006;2022-12-18T11:23:03;-2.90;99.90
22224;DHT22;11281;52.194;21.006;2022-12-18T11:27:28;-3.00;99.90
22224;DHT22;11281;52.194;21.006;2022-12-18T11:31:50;-3.00;99.90
22224;DHT22;11281;52.194;21.006;2022-12-18T11:36:11;-2.60;99.90
22224;DHT22;11281;52.194;21.006;2022-12-18T11:40:36;-2.50;99.90
22224;DHT22;11281;52.194;21.006;2022-12-18T11:45:19;-2.50;99.90
22224;DHT22;11281;52.194;21.006;2022-12-18T11:49:48;-3.00;99.90
22224;DHT22;11281;52.194;21.006;2022-12-18T11:54:15;-2.90;99.90
22224;DHT22;11281;52.194;21.006;2022-12-18T12:07:59;-3.00;99.90
22224;DHT22;11281;52.194;21.006;2022-12-18T12:37:28;-2.60;99.90
22224;DHT22;11281;52.194;21.006;2022-12-18T12:41:55;-2.70;99.90
22224;DHT22;11281;52.194;21.006;2022-12-18T12:46:39;-2.90;99.90
22224;DHT22;11281;52.194;21.006;2022-12-18T12:51:51;-2.70;99.90
22224;DHT22;11281;52.194;21.006;2022-12-18T12:55:56;-3.00;99.90
22224;DHT22;11281;52.194;21.006;2022-12-18T13:00:19;-3.00;99.90
22224;DHT22;11281;52.194;21.006;2022-12-18T13:09:24;-3.00;99.90
22224;DHT22;11281;52.194;21.006;2022-12-18T13:13:50;-2.90;99.90
22224;DHT22;11281;52.194;21.006;2022-12-18T13:18:22;-3.10;99.90
22224;DHT22;11281;52.194;21.006;2022-12-18T13:22:49;-3.30;99.90
22224;DHT22;11281;52.194;21.006;2022-12-18T13:27:45;-3.30;99.90
22224;DHT22;11281;52.194;21.006;2022-12-18T13:32:23;-3.20;99.90
22224;DHT22;11281;52.194;21.006;2022-12-18T13:36:47;-3.50;99.90
22224;DHT22;11281;52.194;21.006;2022-12-18T13:45:48;-3.40;99.90
22224;DHT22;11281;52.194;21.006;2022-12-18T13:50:23;-3.40;99.90
22224;DHT22;11281;52.194;21.006;2022-12-18T13:54:51;-3.20;99.90
22224;DHT22;11281;52.194;21.006;2022-12-18T14:03:45;-3.10;99.90
22224;DHT22;11281;52.194;21.006;2022-12-18T14:08:13;-3.10;99.90
22224;DHT22;11281;52.194;21.006;2022-12-18T14:12:36;-3.30;99.90
22224;DHT22;11281;52.194;21.006;2022-12-18T14:17:16;-3.40;99.90
22224;DHT22;11281;52.194;21.006;2022-12-18T14:21:38;-3.30;99.90
22224;DHT22;11281;52.194;21.006;2022-12-18T14:30:44;-3.30;99.90
22224;DHT22;11281;52.194;21.006;2022-12-18T14:35:13;-3.30;99.90
22224;DHT22;11281;52.194;21.006;2022-12-18T14:39:35;-3.20;99.90
22224;DHT22;11281;52.194;21.006;2022-12-18T14:44:05;-3.20;99.90
22224;DHT22;11281;52.194;21.006;2022-12-18T14:48:42;-3.20;99.90
22224;DHT22;11281;52.194;21.006;2022-12-18T14:53:04;-3.30;99.90
22224;DHT22;11281;52.194;21.006;2022-12-18T14:57:39;-3.20;99.90
22224;DHT22;11281;52.194;21.006;2022-12-18T15:02:09;-3.30;99.90
22224;DHT22;11281;52.194;21.006;2022-12-18T15:06:40;-3.30;99.90
22224;DHT22;11281;52.194;21.006;2022-12-18T15:11:03;-3.30;99.90
22224;DHT22;11281;52.194;21.006;2022-12-18T15:20:09;-3.30;99.90
22224;DHT22;11281;52.194;21.006;2022-12-18T15:24:32;-3.20;99.90
22224;DHT22;11281;52.194;21.006;2022-12-18T15:28:55;-3.20;99.90
22224;DHT22;11281;52.194;21.006;2022-12-18T15:33:24;-3.30;99.90
22224;DHT22;11281;52.194;21.006;2022-12-18T15:37:49;-3.30;99.90
22224;DHT22;11281;52.194;21.006;2022-12-18T15:42:11;-3.40;99.90
22224;DHT22;11281;52.194;21.006;2022-12-18T15:46:51;-3.50;99.90
22224;DHT22;11281;52.194;21.006;2022-12-18T15:51:23;-3.60;99.90
22224;DHT22;11281;52.194;21.006;2022-12-18T15:55:47;-3.70;99.90
22224;DHT22;11281;52.194;21.006;2022-12-18T16:00:27;-3.70;99.90
22224;DHT22;11281;52.194;21.006;2022-12-18T16:04:51;-3.70;99.90
22224;DHT22;11281;52.194;21.006;2022-12-18T16:09:13;-3.70;99.90
22224;DHT22;11281;52.194;21.006;2022-12-18T16:13:35;-3.90;99.90
22224;DHT22;11281;52.194;21.006;2022-12-18T16:17:57;-3.80;99.90
22224;DHT22;11281;52.194;21.006;2022-12-18T16:22:22;-4.00;99.90
22224;DHT22;11281;52.194;21.006;2022-12-18T16:26:45;-3.90;99.90
22224;DHT22;11281;52.194;21.006;2022-12-18T16:31:07;-3.90;99.90
22224;DHT22;11281;52.194;21.006;2022-12-18T16:35:29;-3.90;99.90
22224;DHT22;11281;52.194;21.006;2022-12-18T16:39:51;-3.70;99.90
22224;DHT22;11281;52.194;21.006;2022-12-18T16:44:13;-4.10;99.90
22224;DHT22;11281;52.194;21.006;2022-12-18T16:48:35;-4.10;99.90
22224;DHT22;11281;52.194;21.006;2022-12-18T16:52:57;-4.10;99.90
22224;DHT22;11281;52.194;21.006;2022-12-18T16:57:20;-4.10;99.90
22224;DHT22;11281;52.194;21.006;2022-12-18T17:01:42;-4.10;99.90
22224;DHT22;11281;52.194;21.006;2022-12-18T17:06:04;-3.90;99.90
22224;DHT22;11281;52.194;21.006;2022-12-18T17:10:26;-4.00;99.90
22224;DHT22;11281;52.194;21.006;2022-12-18T17:14:48;-3.90;99.90
22224;DHT22;11281;52.194;21.006;2022-12-18T17:19:10;-4.10;99.90
22224;DHT22;11281;52.194;21.006;2022-12-18T17:23:32;-4.20;99.90
22224;DHT22;11281;52.194;21.006;2022-12-18T17:27:54;-4.10;99.90
22224;DHT22;11281;52.194;21.006;2022-12-18T17:32:16;-4.20;99.90
22224;DHT22;11281;52.194;21.006;2022-12-18T17:36:38;-4.20;99.90
22224;DHT22;11281;52.194;21.006;2022-12-18T17:41:06;-4.30;99.90
22224;DHT22;11281;52.194;21.006;2022-12-18T17:45:29;-4.20;99.90
22224;DHT22;11281;52.194;21.006;2022-12-18T17:49:51;-4.10;99.90
22224;DHT22;11281;52.194;21.006;2022-12-18T17:54:13;-4.10;99.90
22224;DHT22;11281;52.194;21.006;2022-12-18T17:58:38;-4.20;99.90
22224;DHT22;11281;52.194;21.006;2022-12-18T18:03:00;-4.10;99.90
22224;DHT22;11281;52.194;21.006;2022-12-18T18:07:23;-4.20;99.90
22224;DHT22;11281;52.194;21.006;2022-12-18T18:11:45;-4.20;99.90
22224;DHT22;11281;52.194;21.006;2022-12-18T18:16:25;-4.10;99.90
22224;DHT22;11281;52.194;21.006;2022-12-18T18:20:48;-4.20;99.90
22224;DHT22;11281;52.194;21.006;2022-12-18T18:25:09;-4.20;99.90
22224;DHT22;11281;52.194;21.006;2022-12-18T18:29:31;-4.10;99.90
22224;DHT22;11281;52.194;21.006;2022-12-18T18:33:53;-4.10;99.90
22224;DHT22;11281;52.194;21.006;2022-12-18T18:38:15;-4.10;99.90
22224;DHT22;11281;52.194;21.006;2022-12-18T18:42:37;-4.20;99.90
22224;DHT22;11281;52.194;21.006;2022-12-18T18:46:58;-4.20;99.90
22224;DHT22;11281;52.194;21.006;2022-12-18T18:51:20;-4.20;99.90
22224;DHT22;11281;52.194;21.006;2022-12-18T18:55:42;-4.10;99.90
22224;DHT22;11281;52.194;21.006;2022-12-18T19:00:05;-4.10;99.90
22224;DHT22;11281;52.194;21.006;2022-12-18T19:04:28;-4.20;99.90
22224;DHT22;11281;52.194;21.006;2022-12-18T19:08:51;-4.10;99.90
22224;DHT22;11281;52.194;21.006;2022-12-18T19:13:13;-4.30;99.90
22224;DHT22;11281;52.194;21.006;2022-12-18T19:17:41;-4.40;99.90
22224;DHT22;11281;52.194;21.006;2022-12-18T19:22:03;-4.40;99.90
22224;DHT22;11281;52.194;21.006;2022-12-18T19:26:26;-4.40;99.90
22224;DHT22;11281;52.194;21.006;2022-12-18T19:30:49;-4.40;99.90
22224;DHT22;11281;52.194;21.006;2022-12-18T19:35:15;-4.30;99.90
22224;DHT22;11281;52.194;21.006;2022-12-18T19:39:37;-4.10;99.90
22224;DHT22;11281;52.194;21.006;2022-12-18T19:43:59;-4.20;99.90
22224;DHT22;11281;52.194;21.006;2022-12-18T19:48:20;-4.20;99.90
22224;DHT22;11281;52.194;21.006;2022-12-18T19:52:42;-4.30;99.90
22224;DHT22;11281;52.194;21.006;2022-12-18T19:57:04;-4.40;99.90
22224;DHT22;11281;52.194;21.006;2022-12-18T20:01:28;-4.40;99.90
22224;DHT22;11281;52.194;21.006;2022-12-18T20:05:50;-4.40;99.90
22224;DHT22;11281;52.194;21.006;2022-12-18T20:10:13;-4.40;99.90
22224;DHT22;11281;52.194;21.006;2022-12-18T20:14:34;-4.40;99.90
22224;DHT22;11281;52.194;21.006;2022-12-18T20:18:56;-4.50;99.90
22224;DHT22;11281;52.194;21.006;2022-12-18T20:23:18;-4.60;99.90
22224;DHT22;11281;52.194;21.006;2022-12-18T20:27:40;-4.50;99.90
22224;DHT22;11281;52.194;21.006;2022-12-18T20:32:02;-4.50;99.90
22224;DHT22;11281;52.194;21.006;2022-12-18T20:36:24;-4.50;99.90
22224;DHT22;11281;52.194;21.006;2022-12-18T20:40:46;-4.40;99.90
22224;DHT22;11281;52.194;21.006;2022-12-18T20:45:07;-4.50;99.90
22224;DHT22;11281;52.194;21.006;2022-12-18T20:49:29;-4.70;99.90
22224;DHT22;11281;52.194;21.006;2022-12-18T20:53:53;-4.70;99.90
22224;DHT22;11281;52.194;21.006;2022-12-18T20:58:15;-4.80;99.90
22224;DHT22;11281;52.194;21.006;2022-12-18T21:02:37;-4.70;99.90
22224;DHT22;11281;52.194;21.006;2022-12-18T21:06:59;-4.60;99.90
22224;DHT22;11281;52.194;21.006;2022-12-18T21:16:00;-4.80;99.90
22224;DHT22;11281;52.194;21.006;2022-12-18T21:20:22;-4.70;99.90
22224;DHT22;11281;52.194;21.006;2022-12-18T21:24:44;-4.60;99.90
22224;DHT22;11281;52.194;21.006;2022-12-18T21:29:09;-4.60;99.90
22224;DHT22;11281;52.194;21.006;2022-12-18T21:33:32;-4.70;99.90
22224;DHT22;11281;52.194;21.006;2022-12-18T21:37:54;-4.80;99.90
22224;DHT22;11281;52.194;21.006;2022-12-18T21:42:15;-4.90;99.90
22224;DHT22;11281;52.194;21.006;2022-12-18T21:46:56;-4.90;99.90
22224;DHT22;11281;52.194;21.006;2022-12-18T21:51:18;-4.90;99.90
22224;DHT22;11281;52.194;21.006;2022-12-18T21:55:40;-5.00;99.90
22224;DHT22;11281;52.194;21.006;2022-12-18T22:00:02;-4.90;99.90
22224;DHT22;11281;52.194;21.006;2022-12-18T22:04:25;-5.00;99.90
22224;DHT22;11281;52.194;21.006;2022-12-18T22:08:48;-4.90;99.90
22224;DHT22;11281;52.194;21.006;2022-12-18T22:13:09;-4.90;99.90
22224;DHT22;11281;52.194;21.006;2022-12-18T22:17:31;-4.80;99.90
22224;DHT22;11281;52.194;21.006;2022-12-18T22:21:53;-4.90;99.90
22224;DHT22;11281;52.194;21.006;2022-12-18T22:26:15;-4.90;99.90
22224;DHT22;11281;52.194;21.006;2022-12-18T22:30:37;-4.90;99.90
22224;DHT22;11281;52.194;21.006;2022-12-18T22:34:59;-4.90;99.90
22224;DHT22;11281;52.194;21.006;2022-12-18T22:39:27;-4.80;99.90
22224;DHT22;11281;52.194;21.006;2022-12-18T22:43:50;-4.80;99.90
22224;DHT22;11281;52.194;21.006;2022-12-18T22:48:11;-4.80;99.90
22224;DHT22;11281;52.194;21.006;2022-12-18T22:52:33;-4.90;99.90
22224;DHT22;11281;52.194;21.006;2022-12-18T22:56:55;-4.90;99.90
22224;DHT22;11281;52.194;21.006;2022-12-18T23:01:22;-4.90;99.90
22224;DHT22;11281;52.194;21.006;2022-12-18T23:05:45;-4.80;99.90
22224;DHT22;11281;52.194;21.006;2022-12-18T23:10:08;-4.90;99.90
22224;DHT22;11281;52.194;21.006;2022-12-18T23:14:30;-4.80;99.90
22224;DHT22;11281;52.194;21.006;2022-12-18T23:18:53;-4.70;99.90
22224;DHT22;11281;52.194;21.006;2022-12-18T23:23:16;-4.70;99.90
22224;DHT22;11281;52.194;21.006;2022-12-18T23:27:37;-4.70;99.90
22224;DHT22;11281;52.194;21.006;2022-12-18T23:31:59;-4.70;99.90
22224;DHT22;11281;52.194;21.006;2022-12-18T23:36:21;-4.70;99.90
22224;DHT22;11281;52.194;21.006;2022-12-18T23:40:43;-4.70;99.90
22224;DHT22;11281;52.194;21.006;2022-12-18T23:45:05;-4.70;99.90
22224;DHT22;11281;52.194;21.006;2022-12-18T23:49:27;-4.70;99.90
22224;DHT22;11281;52.194;21.006;2022-12-18T23:53:50;-4.70;99.90
22224;DHT22;11281;52.194;21.006;2022-12-18T23:58:18;-4.50;99.90
